createdAt,value
2023-03-29T00:00:43.006Z,75.09
2023-03-29T00:01:43.002Z,74.88
2023-03-29T00:02:43.102Z,74.46
2023-03-29T00:03:43.052Z,74.46
2023-03-29T00:04:43.097Z,74.98
2023-03-29T00:05:42.958Z,74.46
2023-03-29T00:06:42.943Z,74.57
2023-03-29T00:07:42.951Z,74.77
2023-03-29T00:08:42.922Z,75.09
2023-03-29T00:09:43.421Z,75.12
2023-03-29T00:10:42.930Z,75.19
2023-03-29T00:11:42.941Z,75.33
2023-03-29T00:12:42.892Z,75.19
2023-03-29T00:13:42.950Z,74.98
2023-03-29T00:14:42.880Z,75.74
2023-03-29T00:15:42.848Z,75.74
2023-03-29T00:16:43.009Z,75.60
2023-03-29T00:17:43.419Z,75.19
2023-03-29T00:18:42.820Z,75.50
2023-03-29T00:19:42.810Z,75.29
2023-03-29T00:20:42.791Z,74.98
2023-03-29T00:21:42.780Z,74.77
2023-03-29T00:22:42.789Z,74.98
2023-03-29T00:23:42.757Z,74.57
2023-03-29T00:24:42.744Z,75.19
2023-03-29T00:25:42.736Z,75.60
2023-03-29T00:26:42.739Z,75.19
2023-03-29T00:27:42.716Z,75.46
2023-03-29T00:28:42.757Z,75.40
2023-03-29T00:29:42.693Z,75.50
2023-03-29T00:30:42.702Z,75.95
2023-03-29T00:31:42.731Z,75.95
2023-03-29T00:32:42.754Z,75.64
2023-03-29T00:33:42.659Z,75.74
2023-03-29T00:34:42.663Z,76.26
2023-03-29T00:35:42.642Z,76.06
2023-03-29T00:36:42.617Z,76.16
2023-03-29T00:37:42.626Z,76.06
2023-03-29T00:38:42.604Z,75.85
2023-03-29T00:39:42.618Z,75.95
2023-03-29T00:40:42.574Z,75.95
2023-03-29T00:41:42.577Z,75.95
2023-03-29T00:42:42.926Z,76.06
2023-03-29T00:43:42.550Z,76.06
2023-03-29T00:44:42.529Z,75.95
2023-03-29T00:45:42.518Z,75.95
2023-03-29T00:46:42.628Z,76.06
2023-03-29T00:47:42.608Z,76.68
2023-03-29T00:48:42.499Z,76.37
2023-03-29T00:49:42.548Z,76.37
2023-03-29T00:50:42.505Z,76.06
2023-03-29T00:51:42.491Z,76.02
2023-03-29T00:52:42.514Z,75.85
2023-03-29T00:53:42.431Z,76.06
2023-03-29T00:54:42.468Z,76.02
2023-03-29T00:55:42.413Z,76.23
2023-03-29T00:56:42.565Z,75.71
2023-03-29T00:57:42.393Z,76.02
2023-03-29T00:58:42.551Z,75.60
2023-03-29T00:59:42.366Z,75.92
2023-03-29T01:00:42.356Z,76.26
2023-03-29T01:01:42.553Z,75.95
2023-03-29T01:02:42.395Z,76.06
2023-03-29T01:03:42.389Z,76.16
2023-03-29T01:04:42.315Z,76.06
2023-03-29T01:05:42.300Z,76.06
2023-03-29T01:06:42.339Z,76.06
2023-03-29T01:07:42.288Z,76.16
2023-03-29T01:08:42.270Z,76.23
2023-03-29T01:09:42.255Z,76.16
2023-03-29T01:10:42.278Z,76.33
2023-03-29T01:11:42.235Z,76.37
2023-03-29T01:12:42.240Z,76.06
2023-03-29T01:13:42.225Z,76.68
2023-03-29T01:14:42.219Z,76.92
2023-03-29T01:15:42.210Z,76.40
2023-03-29T01:16:42.221Z,76.29
2023-03-29T01:17:42.208Z,76.40
2023-03-29T01:18:42.197Z,76.40
2023-03-29T01:19:42.172Z,76.68
2023-03-29T01:20:42.141Z,75.74
2023-03-29T01:21:42.125Z,76.37
2023-03-29T01:22:42.119Z,76.57
2023-03-29T01:23:42.105Z,76.99
2023-03-29T01:24:42.181Z,76.99
2023-03-29T01:25:42.130Z,76.81
2023-03-29T01:26:42.087Z,77.33
2023-03-29T01:27:42.127Z,77.54
2023-03-29T01:28:42.053Z,76.26
2023-03-29T01:29:42.051Z,76.16
2023-03-29T01:30:42.043Z,76.16
2023-03-29T01:31:42.102Z,76.37
2023-03-29T01:32:42.083Z,76.16
2023-03-29T01:33:41.994Z,76.50
2023-03-29T01:34:42.004Z,76.37
2023-03-29T01:35:42.015Z,76.99
2023-03-29T01:36:41.957Z,76.16
2023-03-29T01:37:41.951Z,76.68
2023-03-29T01:38:41.946Z,76.47
2023-03-29T01:39:41.926Z,76.16
2023-03-29T01:40:41.960Z,76.57
2023-03-29T01:41:41.903Z,77.44
2023-03-29T01:42:41.899Z,77.40
2023-03-29T01:43:41.878Z,77.40
2023-03-29T01:44:41.873Z,77.30
2023-03-29T01:45:41.897Z,77.40
2023-03-29T01:46:42.034Z,77.20
2023-03-29T01:47:41.861Z,77.51
2023-03-29T01:48:41.826Z,77.20
2023-03-29T01:49:41.833Z,77.16
2023-03-29T01:50:41.831Z,77.26
2023-03-29T01:51:41.799Z,77.26
2023-03-29T01:52:41.784Z,77.47
2023-03-29T01:53:41.830Z,76.64
2023-03-29T01:54:41.771Z,76.95
2023-03-29T01:55:41.766Z,76.37
2023-03-29T01:56:41.772Z,76.95
2023-03-29T01:57:41.741Z,75.81
2023-03-29T01:58:41.724Z,75.60
2023-03-29T01:59:41.707Z,76.02
2023-03-29T02:00:41.726Z,76.02
2023-03-29T02:01:41.724Z,76.12
2023-03-29T02:02:41.807Z,76.02
2023-03-29T02:03:41.693Z,76.12
2023-03-29T02:04:41.658Z,76.02
2023-03-29T02:05:41.641Z,76.33
2023-03-29T02:06:41.671Z,75.92
2023-03-29T02:07:41.614Z,75.92
2023-03-29T02:08:41.605Z,76.02
2023-03-29T02:09:41.594Z,75.92
2023-03-29T02:10:41.827Z,75.71
2023-03-29T02:11:41.570Z,75.78
2023-03-29T02:12:41.563Z,75.46
2023-03-29T02:13:41.570Z,75.98
2023-03-29T02:14:41.559Z,75.50
2023-03-29T02:15:41.565Z,75.60
2023-03-29T02:16:41.531Z,75.46
2023-03-29T02:17:41.519Z,75.88
2023-03-29T02:18:41.497Z,75.81
2023-03-29T02:19:41.486Z,75.05
2023-03-29T02:20:41.491Z,75.26
2023-03-29T02:21:41.475Z,74.95
2023-03-29T02:22:41.470Z,74.74
2023-03-29T02:23:41.439Z,75.46
2023-03-29T02:24:41.524Z,75.78
2023-03-29T02:25:41.434Z,75.92
2023-03-29T02:26:41.403Z,75.29
2023-03-29T02:27:41.400Z,74.98
2023-03-29T02:28:41.388Z,75.40
2023-03-29T02:29:41.374Z,75.60
2023-03-29T02:30:41.393Z,75.71
2023-03-29T02:31:41.411Z,76.12
2023-03-29T02:32:41.352Z,76.12
2023-03-29T02:33:41.329Z,76.02
2023-03-29T02:34:41.320Z,76.02
2023-03-29T02:35:41.339Z,76.23
2023-03-29T02:36:41.506Z,75.92
2023-03-29T02:37:41.287Z,75.81
2023-03-29T02:38:41.296Z,75.60
2023-03-29T02:39:41.274Z,75.71
2023-03-29T02:40:41.265Z,75.40
2023-03-29T02:41:41.240Z,75.71
2023-03-29T02:42:41.228Z,76.02
2023-03-29T02:43:41.215Z,76.02
2023-03-29T02:44:41.210Z,75.40
2023-03-29T02:45:41.228Z,75.81
2023-03-29T02:46:41.266Z,76.02
2023-03-29T02:47:41.199Z,76.23
2023-03-29T02:48:41.162Z,75.92
2023-03-29T02:49:41.158Z,76.12
2023-03-29T02:50:41.328Z,75.95
2023-03-29T02:51:41.154Z,76.23
2023-03-29T02:52:41.128Z,76.12
2023-03-29T02:53:41.111Z,76.16
2023-03-29T02:54:41.136Z,75.85
2023-03-29T02:55:41.357Z,76.06
2023-03-29T02:56:41.111Z,76.16
2023-03-29T02:57:41.085Z,75.85
2023-03-29T02:58:41.058Z,75.95
2023-03-29T02:59:41.053Z,75.74
2023-03-29T03:00:41.044Z,77.02
2023-03-29T03:01:41.061Z,76.16
2023-03-29T03:02:41.050Z,76.40
2023-03-29T03:03:41.128Z,76.19
2023-03-29T03:04:40.992Z,75.78
2023-03-29T03:05:40.976Z,77.02
2023-03-29T03:06:40.991Z,77.23
2023-03-29T03:07:41.017Z,77.44
2023-03-29T03:08:40.950Z,77.44
2023-03-29T03:09:40.986Z,77.33
2023-03-29T03:10:40.955Z,77.12
2023-03-29T03:11:40.919Z,76.92
2023-03-29T03:12:41.900Z,77.33
2023-03-29T03:13:40.897Z,77.23
2023-03-29T03:14:40.886Z,77.33
2023-03-29T03:15:40.874Z,77.44
2023-03-29T03:16:40.912Z,77.44
2023-03-29T03:17:40.880Z,77.54
2023-03-29T03:18:40.841Z,77.33
2023-03-29T03:19:40.838Z,77.33
2023-03-29T03:20:40.821Z,77.26
2023-03-29T03:21:40.829Z,77.23
2023-03-29T03:22:40.831Z,77.78
2023-03-29T03:23:40.780Z,77.68
2023-03-29T03:24:40.772Z,77.47
2023-03-29T03:25:40.766Z,77.58
2023-03-29T03:26:40.770Z,78.09
2023-03-29T03:27:40.735Z,77.89
2023-03-29T03:28:40.739Z,78.09
2023-03-29T03:29:40.709Z,78.09
2023-03-29T03:30:40.706Z,78.61
2023-03-29T03:31:40.771Z,78.09
2023-03-29T03:32:40.699Z,78.72
2023-03-29T03:33:40.679Z,78.65
2023-03-29T03:34:40.656Z,79.13
2023-03-29T03:35:40.663Z,78.86
2023-03-29T03:36:40.638Z,78.86
2023-03-29T03:37:40.638Z,78.75
2023-03-29T03:38:40.617Z,79.58
2023-03-29T03:39:40.594Z,79.48
2023-03-29T03:40:40.617Z,79.06
2023-03-29T03:41:40.576Z,79.38
2023-03-29T03:42:40.602Z,79.27
2023-03-29T03:43:40.574Z,79.21
2023-03-29T03:44:40.544Z,79.06
2023-03-29T03:45:40.574Z,78.96
2023-03-29T03:46:40.528Z,78.96
2023-03-29T03:47:40.542Z,79.58
2023-03-29T03:48:40.522Z,79.06
2023-03-29T03:49:40.500Z,78.96
2023-03-29T03:50:40.491Z,79.62
2023-03-29T03:51:40.468Z,79.31
2023-03-29T03:52:41.442Z,79.00
2023-03-29T03:53:40.488Z,79.52
2023-03-29T03:54:40.442Z,79.52
2023-03-29T03:55:40.419Z,79.31
2023-03-29T03:56:40.436Z,79.62
2023-03-29T03:57:40.574Z,79.90
2023-03-29T03:58:40.416Z,79.69
2023-03-29T03:59:40.393Z,79.38
2023-03-29T04:00:40.375Z,79.21
2023-03-29T04:01:40.357Z,78.96
2023-03-29T04:02:40.398Z,79.58
2023-03-29T04:03:40.543Z,79.62
2023-03-29T04:04:40.334Z,79.48
2023-03-29T04:05:40.322Z,79.06
2023-03-29T04:06:43.582Z,78.75
2023-03-29T04:07:40.353Z,78.86
2023-03-29T04:08:40.360Z,78.65
2023-03-29T04:09:40.276Z,78.75
2023-03-29T04:10:40.257Z,79.06
2023-03-29T04:11:41.203Z,78.96
2023-03-29T04:12:40.236Z,78.34
2023-03-29T04:13:40.264Z,78.44
2023-03-29T04:14:40.238Z,78.34
2023-03-29T04:15:40.247Z,78.13
2023-03-29T04:16:40.262Z,78.44
2023-03-29T04:17:40.285Z,78.23
2023-03-29T04:18:40.265Z,78.38
2023-03-29T04:19:40.170Z,78.38
2023-03-29T04:20:40.146Z,78.89
2023-03-29T04:21:40.152Z,79.41
2023-03-29T04:22:40.125Z,79.17
2023-03-29T04:23:40.128Z,79.72
2023-03-29T04:24:40.116Z,79.83
2023-03-29T04:25:40.089Z,78.86
2023-03-29T04:26:40.081Z,78.75
2023-03-29T04:27:40.070Z,79.06
2023-03-29T04:28:40.159Z,78.34
2023-03-29T04:29:40.063Z,78.96
2023-03-29T04:30:40.191Z,78.65
2023-03-29T04:31:40.075Z,78.55
2023-03-29T04:32:40.069Z,78.79
2023-03-29T04:33:40.011Z,78.75
2023-03-29T04:34:40.025Z,78.65
2023-03-29T04:35:40.060Z,78.65
2023-03-29T04:36:39.973Z,78.86
2023-03-29T04:37:39.976Z,78.75
2023-03-29T04:38:39.973Z,78.75
2023-03-29T04:39:39.948Z,78.86
2023-03-29T04:40:39.947Z,78.86
2023-03-29T04:41:39.920Z,78.65
2023-03-29T04:42:40.447Z,78.13
2023-03-29T04:43:40.457Z,77.72
2023-03-29T04:44:39.938Z,78.13
2023-03-29T04:45:39.882Z,78.13
2023-03-29T04:46:39.917Z,77.82
2023-03-29T04:47:39.876Z,77.82
2023-03-29T04:48:39.840Z,77.92
2023-03-29T04:49:39.878Z,78.13
2023-03-29T04:50:39.834Z,78.44
2023-03-29T04:51:39.810Z,78.44
2023-03-29T04:52:39.799Z,78.44
2023-03-29T04:53:39.789Z,78.34
2023-03-29T04:54:39.812Z,78.34
2023-03-29T04:55:39.772Z,78.34
2023-03-29T04:56:39.832Z,78.23
2023-03-29T04:57:39.754Z,78.17
2023-03-29T04:58:39.743Z,78.17
2023-03-29T04:59:39.724Z,78.44
2023-03-29T05:00:39.755Z,78.13
2023-03-29T05:01:39.736Z,78.75
2023-03-29T05:02:39.718Z,78.96
2023-03-29T05:03:39.689Z,78.44
2023-03-29T05:04:39.753Z,79.06
2023-03-29T05:05:39.669Z,79.27
2023-03-29T05:06:39.646Z,78.96
2023-03-29T05:07:39.636Z,77.92
2023-03-29T05:08:39.626Z,77.96
2023-03-29T05:09:39.616Z,78.13
2023-03-29T05:10:39.624Z,78.23
2023-03-29T05:11:39.614Z,77.82
2023-03-29T05:12:39.589Z,77.51
2023-03-29T05:13:39.565Z,77.92
2023-03-29T05:14:39.562Z,77.26
2023-03-29T05:15:41.224Z,77.68
2023-03-29T05:16:39.622Z,77.51
2023-03-29T05:17:39.585Z,77.92
2023-03-29T05:18:39.555Z,78.27
2023-03-29T05:19:39.519Z,78.48
2023-03-29T05:20:39.993Z,78.55
2023-03-29T05:21:39.495Z,78.44
2023-03-29T05:22:39.497Z,78.65
2023-03-29T05:23:39.458Z,78.23
2023-03-29T05:24:39.446Z,78.65
2023-03-29T05:25:39.434Z,77.82
2023-03-29T05:26:39.463Z,77.89
2023-03-29T05:27:39.549Z,77.82
2023-03-29T05:28:39.432Z,77.92
2023-03-29T05:29:39.562Z,77.47
2023-03-29T05:30:39.380Z,75.92
2023-03-29T05:31:39.395Z,76.23
2023-03-29T05:32:39.459Z,77.06
2023-03-29T05:33:39.345Z,76.54
2023-03-29T05:34:39.356Z,76.02
2023-03-29T05:35:39.954Z,75.64
2023-03-29T05:36:39.330Z,76.06
2023-03-29T05:37:46.367Z,76.02
2023-03-29T05:38:39.298Z,76.95
2023-03-29T05:39:39.283Z,76.92
2023-03-29T05:40:39.269Z,76.71
2023-03-29T05:41:39.256Z,77.02
2023-03-29T05:42:39.257Z,75.74
2023-03-29T05:43:39.291Z,75.64
2023-03-29T05:44:39.224Z,75.88
2023-03-29T05:45:39.250Z,75.57
2023-03-29T05:46:39.202Z,75.67
2023-03-29T05:47:39.226Z,75.95
2023-03-29T05:48:39.176Z,75.33
2023-03-29T05:49:39.168Z,75.43
2023-03-29T05:50:39.186Z,75.71
2023-03-29T05:51:39.176Z,75.09
2023-03-29T05:52:39.136Z,75.40
2023-03-29T05:53:39.126Z,75.40
2023-03-29T05:54:39.113Z,74.46
2023-03-29T05:55:39.105Z,74.46
2023-03-29T05:56:39.129Z,73.80
2023-03-29T05:57:39.098Z,73.94
2023-03-29T05:58:39.073Z,73.91
2023-03-29T05:59:39.061Z,73.60
2023-03-29T06:00:39.052Z,72.88
2023-03-29T06:01:39.041Z,73.25
2023-03-29T06:02:39.631Z,72.46
2023-03-29T06:03:39.168Z,72.53
2023-03-29T06:04:39.211Z,73.15
2023-03-29T06:05:39.003Z,72.42
2023-03-29T06:06:39.002Z,72.94
2023-03-29T06:07:39.125Z,72.63
2023-03-29T06:08:38.982Z,72.15
2023-03-29T06:09:38.964Z,72.67
2023-03-29T06:10:38.951Z,73.18
2023-03-29T06:11:38.935Z,72.77
2023-03-29T06:12:38.947Z,72.36
2023-03-29T06:13:39.086Z,72.56
2023-03-29T06:14:38.901Z,72.25
2023-03-29T06:15:38.889Z,72.05
2023-03-29T06:16:40.156Z,72.11
2023-03-29T06:17:38.916Z,71.80
2023-03-29T06:18:38.872Z,71.77
2023-03-29T06:19:38.836Z,71.59
2023-03-29T06:20:38.829Z,71.49
2023-03-29T06:21:38.834Z,72.11
2023-03-29T06:22:38.828Z,71.77
2023-03-29T06:23:38.842Z,71.15
2023-03-29T06:24:38.795Z,71.15
2023-03-29T06:25:38.768Z,71.04
2023-03-29T06:26:38.883Z,70.91
2023-03-29T06:27:39.500Z,70.84
2023-03-29T06:28:38.803Z,71.36
2023-03-29T06:29:38.826Z,71.12
2023-03-29T06:30:38.761Z,70.70
2023-03-29T06:31:38.809Z,70.11
2023-03-29T06:32:38.735Z,71.25
2023-03-29T06:33:39.509Z,71.04
2023-03-29T06:34:38.769Z,71.25
2023-03-29T06:35:38.728Z,71.46
2023-03-29T06:36:38.656Z,71.15
2023-03-29T06:37:38.643Z,71.25
2023-03-29T06:38:38.643Z,70.84
2023-03-29T06:39:38.656Z,70.73
2023-03-29T06:40:38.610Z,71.36
2023-03-29T06:41:38.641Z,71.22
2023-03-29T06:42:38.604Z,70.70
2023-03-29T06:43:38.674Z,70.81
2023-03-29T06:44:38.588Z,70.87
2023-03-29T06:45:38.770Z,71.19
2023-03-29T06:46:38.611Z,69.71
2023-03-29T06:47:38.589Z,69.50
2023-03-29T06:48:38.515Z,69.71
2023-03-29T06:49:38.519Z,69.60
2023-03-29T06:50:38.510Z,69.37
2023-03-29T06:51:38.483Z,69.37
2023-03-29T06:52:38.514Z,69.06
2023-03-29T06:53:38.467Z,69.26
2023-03-29T06:54:38.488Z,68.54
2023-03-29T06:55:38.440Z,69.16
2023-03-29T06:56:38.446Z,68.74
2023-03-29T06:57:38.429Z,69.16
2023-03-29T06:58:38.430Z,69.37
2023-03-29T06:59:38.419Z,68.71
2023-03-29T07:00:38.398Z,68.71
2023-03-29T07:01:38.413Z,68.51
2023-03-29T07:02:38.371Z,67.24
2023-03-29T07:03:38.349Z,67.58
2023-03-29T07:04:38.513Z,67.68
2023-03-29T07:05:38.333Z,67.78
2023-03-29T07:06:38.315Z,67.37
2023-03-29T07:07:38.305Z,67.82
2023-03-29T07:08:38.310Z,68.33
2023-03-29T07:09:38.327Z,68.33
2023-03-29T07:10:38.378Z,68.95
2023-03-29T07:11:38.259Z,69.06
2023-03-29T07:12:38.263Z,69.40
2023-03-29T07:13:38.254Z,69.67
2023-03-29T07:14:38.222Z,68.85
2023-03-29T07:15:38.218Z,68.12
2023-03-29T07:16:38.262Z,68.54
2023-03-29T07:17:38.262Z,68.02
2023-03-29T07:18:38.448Z,68.54
2023-03-29T07:19:38.170Z,67.68
2023-03-29T07:20:38.192Z,67.75
2023-03-29T07:21:38.174Z,67.44
2023-03-29T07:22:38.182Z,67.13
2023-03-29T07:23:38.143Z,67.00
2023-03-29T07:24:38.200Z,66.55
2023-03-29T07:25:38.112Z,65.05
2023-03-29T07:26:38.121Z,64.43
2023-03-29T07:27:38.088Z,64.22
2023-03-29T07:28:38.104Z,64.09
2023-03-29T07:29:38.081Z,64.12
2023-03-29T07:30:38.045Z,63.40
2023-03-29T07:31:38.036Z,63.27
2023-03-29T07:32:38.106Z,62.85
2023-03-29T07:33:38.096Z,62.72
2023-03-29T07:34:38.015Z,62.38
2023-03-29T07:35:38.138Z,61.71
2023-03-29T07:36:37.984Z,61.51
2023-03-29T07:37:37.969Z,60.21
2023-03-29T07:38:37.961Z,59.80
2023-03-29T07:39:37.962Z,58.85
2023-03-29T07:40:37.932Z,59.26
2023-03-29T07:41:37.957Z,59.52
2023-03-29T07:42:37.946Z,60.03
2023-03-29T07:43:37.918Z,60.27
2023-03-29T07:44:37.889Z,60.45
2023-03-29T07:45:37.926Z,60.45
2023-03-29T07:46:37.864Z,59.93
2023-03-29T07:47:37.920Z,60.03
2023-03-29T07:48:37.848Z,59.86
2023-03-29T07:49:37.873Z,61.33
2023-03-29T07:50:37.830Z,61.02
2023-03-29T07:51:37.840Z,62.02
2023-03-29T07:52:37.792Z,60.65
2023-03-29T07:53:37.788Z,60.52
2023-03-29T07:54:37.959Z,59.54
2023-03-29T07:55:37.762Z,58.87
2023-03-29T07:56:37.934Z,57.48
2023-03-29T07:57:37.749Z,56.71
2023-03-29T07:58:37.746Z,55.02
2023-03-29T07:59:37.726Z,54.08
2023-03-29T08:00:37.770Z,53.34
2023-03-29T08:01:37.709Z,53.03
2023-03-29T08:02:37.745Z,52.42
2023-03-29T08:03:37.814Z,53.34
2023-03-29T08:04:37.761Z,52.09
2023-03-29T08:05:41.334Z,51.63
2023-03-29T08:06:38.513Z,51.20
2023-03-29T08:07:37.625Z,50.99
2023-03-29T08:08:38.553Z,50.18
2023-03-29T08:09:37.618Z,50.18
2023-03-29T08:10:37.593Z,50.15
2023-03-29T08:11:37.613Z,49.34
2023-03-29T08:12:37.591Z,49.67
2023-03-29T08:13:38.521Z,50.48
2023-03-29T08:14:37.583Z,49.87
2023-03-29T08:15:37.656Z,49.42
2023-03-29T08:16:37.589Z,48.60
2023-03-29T08:17:37.572Z,48.99
2023-03-29T08:18:37.508Z,48.27
2023-03-29T08:19:37.535Z,48.96
2023-03-29T08:20:37.507Z,49.34
2023-03-29T08:21:37.475Z,49.73
2023-03-29T08:22:37.463Z,48.86
2023-03-29T08:23:37.495Z,48.66
2023-03-29T08:24:37.441Z,48.86
2023-03-29T08:25:37.445Z,48.05
2023-03-29T08:26:37.419Z,47.92
2023-03-29T08:27:37.467Z,48.64
2023-03-29T08:28:37.395Z,48.11
2023-03-29T08:29:37.386Z,47.70
2023-03-29T08:30:37.434Z,48.33
2023-03-29T08:31:37.381Z,48.86
2023-03-29T08:32:37.407Z,47.56
2023-03-29T08:33:37.343Z,48.93
2023-03-29T08:34:37.362Z,49.77
2023-03-29T08:35:37.356Z,49.90
2023-03-29T08:36:37.326Z,50.74
2023-03-29T08:37:37.305Z,50.86
2023-03-29T08:38:37.286Z,50.81
2023-03-29T08:39:37.272Z,51.22
2023-03-29T08:40:37.301Z,50.34
2023-03-29T08:41:37.298Z,48.84
2023-03-29T08:42:37.244Z,46.29
2023-03-29T08:43:37.228Z,45.46
2023-03-29T08:44:38.035Z,43.85
2023-03-29T08:45:37.209Z,41.93
2023-03-29T08:46:37.462Z,39.95
2023-03-29T08:47:37.210Z,38.57
2023-03-29T08:48:37.185Z,38.23
2023-03-29T08:49:37.163Z,37.51
2023-03-29T08:50:37.148Z,35.95
2023-03-29T08:51:37.155Z,35.63
2023-03-29T08:52:37.134Z,35.11
2023-03-29T08:53:37.120Z,34.16
2023-03-29T08:54:37.109Z,33.71
2023-03-29T08:55:37.092Z,36.11
2023-03-29T08:56:37.096Z,37.58
2023-03-29T08:57:37.075Z,38.60
2023-03-29T08:58:37.213Z,39.87
2023-03-29T08:59:37.053Z,41.14
2023-03-29T09:00:37.051Z,41.36
2023-03-29T09:01:37.026Z,42.05
2023-03-29T09:02:37.631Z,42.35
2023-03-29T09:03:37.082Z,41.75
2023-03-29T09:04:37.010Z,41.55
2023-03-29T09:05:36.982Z,42.37
2023-03-29T09:06:36.971Z,42.40
2023-03-29T09:07:36.957Z,41.27
2023-03-29T09:08:37.127Z,38.55
2023-03-29T09:09:36.979Z,38.31
2023-03-29T09:10:36.928Z,37.69
2023-03-29T09:11:36.913Z,38.65
2023-03-29T09:12:37.902Z,37.91
2023-03-29T09:13:36.895Z,37.27
2023-03-29T09:14:36.898Z,37.15
2023-03-29T09:15:36.871Z,37.05
2023-03-29T09:16:36.895Z,37.29
2023-03-29T09:17:36.902Z,37.79
2023-03-29T09:18:36.861Z,38.37
2023-03-29T09:19:36.839Z,39.63
2023-03-29T09:20:36.915Z,40.86
2023-03-29T09:21:36.799Z,40.76
2023-03-29T09:22:36.814Z,42.90
2023-03-29T09:23:36.786Z,44.99
2023-03-29T09:24:36.767Z,47.20
2023-03-29T09:25:50.850Z,48.16
2023-03-29T09:26:37.745Z,48.31
2023-03-29T09:27:36.734Z,50.78
2023-03-29T09:28:36.730Z,50.57
2023-03-29T09:29:36.727Z,50.67
2023-03-29T09:30:36.716Z,50.12
2023-03-29T09:31:36.751Z,49.10
2023-03-29T09:32:36.735Z,49.43
2023-03-29T09:33:36.682Z,50.34
2023-03-29T09:34:36.798Z,49.05
2023-03-29T09:35:36.678Z,49.13
2023-03-29T09:36:36.632Z,47.95
2023-03-29T09:37:36.618Z,46.46
2023-03-29T09:38:36.617Z,45.00
2023-03-29T09:39:36.613Z,43.77
2023-03-29T09:40:36.587Z,43.97
2023-03-29T09:41:36.573Z,44.56
2023-03-29T09:42:36.620Z,43.80
2023-03-29T09:43:36.551Z,43.32
2023-03-29T09:44:36.582Z,42.98
2023-03-29T09:45:36.539Z,40.97
2023-03-29T09:46:36.525Z,38.48
2023-03-29T09:47:36.540Z,38.32
2023-03-29T09:48:36.495Z,37.18
2023-03-29T09:49:36.497Z,36.85
2023-03-29T09:50:36.517Z,36.43
2023-03-29T09:51:36.486Z,38.83
2023-03-29T09:52:36.458Z,40.08
2023-03-29T09:53:36.467Z,40.04
2023-03-29T09:54:36.448Z,38.81
2023-03-29T09:55:36.427Z,38.32
2023-03-29T09:56:36.438Z,36.66
2023-03-29T09:57:36.411Z,36.05
2023-03-29T09:58:36.388Z,35.64
2023-03-29T09:59:36.394Z,37.32
2023-03-29T10:00:36.383Z,37.02
2023-03-29T10:01:36.365Z,36.48
2023-03-29T10:02:36.369Z,36.52
2023-03-29T10:03:36.345Z,37.00
2023-03-29T10:04:36.409Z,36.98
2023-03-29T10:05:36.313Z,37.72
2023-03-29T10:06:36.327Z,38.26
2023-03-29T10:07:36.290Z,38.09
2023-03-29T10:08:36.316Z,38.75
2023-03-29T10:09:36.270Z,39.86
2023-03-29T10:10:36.313Z,41.05
2023-03-29T10:11:36.242Z,42.13
2023-03-29T10:12:36.314Z,44.62
2023-03-29T10:13:36.222Z,45.39
2023-03-29T10:14:36.227Z,42.44
2023-03-29T10:15:36.199Z,39.38
2023-03-29T10:16:36.258Z,38.29
2023-03-29T10:17:36.215Z,37.00
2023-03-29T10:18:36.168Z,37.13
2023-03-29T10:19:36.170Z,36.50
2023-03-29T10:20:36.150Z,35.75
2023-03-29T10:21:36.138Z,35.19
2023-03-29T10:22:36.609Z,34.08
2023-03-29T10:23:36.110Z,35.75
2023-03-29T10:24:36.136Z,37.20
2023-03-29T10:25:36.089Z,36.66
2023-03-29T10:26:36.128Z,35.91
2023-03-29T10:27:36.068Z,34.14
2023-03-29T10:28:36.056Z,32.80
2023-03-29T10:29:36.044Z,32.20
2023-03-29T10:30:36.035Z,32.53
2023-03-29T10:31:36.035Z,33.01
2023-03-29T10:32:36.067Z,31.40
2023-03-29T10:33:36.022Z,31.67
2023-03-29T10:34:35.991Z,32.20
2023-03-29T10:35:35.996Z,33.70
2023-03-29T10:36:35.970Z,33.89
2023-03-29T10:37:35.959Z,34.34
2023-03-29T10:38:35.988Z,32.32
2023-03-29T10:39:35.931Z,33.65
2023-03-29T10:40:36.012Z,33.01
2023-03-29T10:41:35.983Z,33.91
2023-03-29T10:42:35.904Z,36.78
2023-03-29T10:43:36.003Z,38.28
2023-03-29T10:44:35.889Z,39.01
2023-03-29T10:45:35.872Z,39.86
2023-03-29T10:46:35.937Z,41.11
2023-03-29T10:47:35.871Z,42.78
2023-03-29T10:48:35.855Z,43.20
2023-03-29T10:49:35.827Z,44.82
2023-03-29T10:50:35.820Z,47.52
2023-03-29T10:51:35.805Z,47.34
2023-03-29T10:52:35.797Z,47.87
2023-03-29T10:53:35.800Z,47.75
2023-03-29T10:54:35.888Z,47.90
2023-03-29T10:55:35.760Z,46.97
2023-03-29T10:56:35.749Z,47.70
2023-03-29T10:57:35.793Z,48.23
2023-03-29T10:58:35.763Z,47.54
2023-03-29T10:59:35.712Z,48.71
2023-03-29T11:00:35.709Z,49.95
2023-03-29T11:01:35.731Z,51.03
2023-03-29T11:02:35.800Z,51.64
2023-03-29T11:03:35.776Z,52.89
2023-03-29T11:04:36.592Z,52.17
2023-03-29T11:05:35.645Z,52.48
2023-03-29T11:06:35.902Z,52.48
2023-03-29T11:07:35.630Z,52.63
2023-03-29T11:08:35.628Z,52.37
2023-03-29T11:09:35.756Z,53.11
2023-03-29T11:10:35.635Z,53.85
2023-03-29T11:11:35.577Z,52.84
2023-03-29T11:12:35.577Z,51.92
2023-03-29T11:13:35.569Z,52.78
2023-03-29T11:14:35.593Z,53.32
2023-03-29T11:15:35.588Z,54.97
2023-03-29T11:16:35.521Z,55.51
2023-03-29T11:17:35.577Z,56.12
2023-03-29T11:18:35.514Z,56.68
2023-03-29T11:19:35.487Z,56.78
2023-03-29T11:20:35.486Z,57.62
2023-03-29T11:21:35.466Z,57.29
2023-03-29T11:22:35.488Z,57.93
2023-03-29T11:23:35.457Z,57.42
2023-03-29T11:24:35.437Z,57.19
2023-03-29T11:25:35.521Z,57.42
2023-03-29T11:26:35.435Z,56.30
2023-03-29T11:27:35.400Z,56.58
2023-03-29T11:28:35.620Z,56.71
2023-03-29T11:29:35.374Z,56.81
2023-03-29T11:30:35.377Z,56.81
2023-03-29T11:31:38.001Z,56.35
2023-03-29T11:32:35.383Z,55.20
2023-03-29T11:33:35.499Z,55.38
2023-03-29T11:34:35.323Z,55.38
2023-03-29T11:35:35.330Z,55.20
2023-03-29T11:36:35.295Z,55.13
2023-03-29T11:37:35.284Z,55.84
2023-03-29T11:38:45.179Z,55.94
2023-03-29T11:39:35.267Z,55.74
2023-03-29T11:40:35.255Z,55.20
2023-03-29T11:41:35.249Z,55.89
2023-03-29T11:42:35.263Z,55.18
2023-03-29T11:43:35.240Z,54.85
2023-03-29T11:44:35.207Z,53.59
2023-03-29T11:45:35.194Z,53.50
2023-03-29T11:46:35.223Z,52.56
2023-03-29T11:47:35.212Z,52.66
2023-03-29T11:48:35.182Z,51.11
2023-03-29T11:49:35.161Z,51.29
2023-03-29T11:50:36.606Z,51.26
2023-03-29T11:51:35.142Z,51.39
2023-03-29T11:52:35.163Z,51.39
2023-03-29T11:53:35.160Z,51.92
2023-03-29T11:54:35.098Z,52.10
2023-03-29T11:55:35.078Z,52.91
2023-03-29T11:56:35.213Z,51.11
2023-03-29T11:57:35.062Z,52.35
2023-03-29T11:58:37.439Z,51.95
2023-03-29T11:59:35.252Z,53.29
2023-03-29T12:00:35.045Z,53.39
2023-03-29T12:01:35.054Z,54.03
2023-03-29T12:02:35.111Z,53.52
2023-03-29T12:03:35.043Z,54.00
2023-03-29T12:04:34.981Z,53.29
2023-03-29T12:05:34.982Z,52.68
2023-03-29T12:06:34.957Z,52.86
2023-03-29T12:07:34.964Z,51.49
2023-03-29T12:08:34.931Z,51.16
2023-03-29T12:09:34.927Z,50.04
2023-03-29T12:10:34.920Z,50.58
2023-03-29T12:11:34.905Z,50.81
2023-03-29T12:12:34.924Z,51.01
2023-03-29T12:13:34.982Z,51.29
2023-03-29T12:14:34.889Z,50.84
2023-03-29T12:15:34.856Z,49.90
2023-03-29T12:16:34.893Z,49.69
2023-03-29T12:17:34.859Z,49.80
2023-03-29T12:18:34.911Z,48.68
2023-03-29T12:19:36.745Z,48.68
2023-03-29T12:20:34.840Z,48.68
2023-03-29T12:21:34.787Z,48.76
2023-03-29T12:22:34.780Z,49.08
2023-03-29T12:23:34.780Z,48.66
2023-03-29T12:24:34.781Z,47.89
2023-03-29T12:25:34.744Z,49.74
2023-03-29T12:26:34.737Z,50.29
2023-03-29T12:27:34.763Z,51.64
2023-03-29T12:28:34.715Z,51.64
2023-03-29T12:29:34.702Z,51.51
2023-03-29T12:30:34.721Z,51.59
2023-03-29T12:31:34.679Z,50.35
2023-03-29T12:32:34.734Z,51.29
2023-03-29T12:33:34.686Z,51.21
2023-03-29T12:34:34.650Z,52.56
2023-03-29T12:35:34.636Z,52.96
2023-03-29T12:36:34.624Z,53.50
2023-03-29T12:37:34.652Z,53.70
2023-03-29T12:38:34.613Z,54.03
2023-03-29T12:39:34.589Z,53.83
2023-03-29T12:40:34.583Z,54.05
2023-03-29T12:41:34.572Z,53.93
2023-03-29T12:42:34.558Z,53.85
2023-03-29T12:43:34.561Z,53.44
2023-03-29T12:44:34.537Z,54.08
2023-03-29T12:45:34.522Z,54.28
2023-03-29T12:46:34.608Z,54.69
2023-03-29T12:47:34.555Z,54.79
2023-03-29T12:48:34.520Z,53.96
2023-03-29T12:49:34.509Z,53.88
2023-03-29T12:50:34.471Z,54.28
2023-03-29T12:51:34.456Z,54.08
2023-03-29T12:52:34.446Z,54.21